ROCKY HARBOUR CS/NF, current weather conditions

sailwx.info

Wind from 030 at 1 knots

Air temperature 16.0° C
Dewpoint 14.0° C

Last reported at 2014-Aug-27 23:00 UTC.
Time now 2014-Aug-28 01:23 UTC

Location: N 49°34' W 057°53'.
View on Google Maps.

See reports from other nearby stations

  
Tides and Currents Weather Stations Pressure Air Temp Water Temp Dewpoint Dewpoint Depression Visibility Wind Speed Wind Dir Waves Ship Positions
date/time (UTC)wind fromknots sea level pressurealtimeterstation pressurevisibilityair tempwater tempwave heightnotes
2014-Aug-28 00:00 260 4 15.0
2014-Aug-27 23:00 030 1 16.0
2014-Aug-27 22:00 300 6 18.0
2014-Aug-27 21:00 240 7 19.0
2014-Aug-27 20:00 240 6 21.0
2014-Aug-27 19:00 230 6 25.0
2014-Aug-27 18:00 240 7 25.0
2014-Aug-27 17:00 250 6 22.0
2014-Aug-27 16:00 240 11 gusting 20 18.0
2014-Aug-27 15:00 200 6 gusting 16 18.0
2014-Aug-27 14:00 240 7 18.0
2014-Aug-27 13:00 210 7 gusting 16 19.0
2014-Aug-27 12:00 220 9 gusting 17 19.0
2014-Aug-27 11:00 170 6 19.0
2014-Aug-27 10:00 220 7 gusting 19 19.0
2014-Aug-27 09:00 230 11 gusting 23 20.0
2014-Aug-27 08:00 220 8 gusting 15 21.0
2014-Aug-27 07:00 210 10 gusting 19 22.0
2014-Aug-27 06:00 200 9 gusting 17 22.0
2014-Aug-27 05:00 180 5 21.0
2014-Aug-27 04:00 180 5 21.0
2014-Aug-27 03:00 160 5 20.0
2014-Aug-27 02:00 150 5 19.0
2014-Aug-27 01:00 170 4 19.0
2014-Aug-27 00:00 190 5 19.0
2014-Aug-26 23:00 220 7 gusting 16 21.0
2014-Aug-26 22:00 230 7 gusting 17 23.0
2014-Aug-26 21:00 230 6 26.0
2014-Aug-26 20:00 170 3 27.0
2014-Aug-26 19:00 150 5 25.0
2014-Aug-26 18:00 160 6 24.0
2014-Aug-26 17:00 160 8 gusting 16 22.0
2014-Aug-26 16:00 150 8 gusting 16 21.0
2014-Aug-26 15:00 160 10 gusting 19 19.0
2014-Aug-26 14:00 170 8 gusting 15 18.0
2014-Aug-26 13:00 160 8 gusting 15 17.0
2014-Aug-26 12:00 150 6 15.0
2014-Aug-26 11:00 170 6 gusting 15 14.0
2014-Aug-26 10:00 160 6 13.0
2014-Aug-26 09:00 160 6 13.0
2014-Aug-26 08:00 170 5 13.0
2014-Aug-26 07:00 150 5 13.0
2014-Aug-26 06:00 160 6 13.0
2014-Aug-26 05:00 150 4 13.0
2014-Aug-26 04:00 160 5 13.0
2014-Aug-26 03:00 160 7 13.0
2014-Aug-26 02:00 170 3 13.0
2014-Aug-26 01:00 110 4 14.0